createdAt,value
2022-10-22T00:00:58.540Z,4.90
2022-10-22T00:03:26.398Z,5.40
2022-10-22T00:05:54.201Z,4.70
2022-10-22T00:08:23.912Z,3.55
2022-10-22T00:10:52.720Z,3.78
2022-10-22T00:13:20.898Z,4.38
2022-10-22T00:15:48.691Z,5.03
2022-10-22T00:18:16.779Z,4.35
2022-10-22T00:20:44.507Z,4.18
2022-10-22T00:23:12.610Z,4.15
2022-10-22T00:25:41.704Z,3.30
2022-10-22T00:28:11.390Z,4.25
2022-10-22T00:30:39.205Z,4.50
2022-10-22T00:33:07.010Z,4.72
2022-10-22T00:35:34.838Z,4.88
2022-10-22T00:38:02.989Z,4.35
2022-10-22T00:40:31.528Z,4.22
2022-10-22T00:43:00.663Z,4.15
2022-10-22T00:45:29.462Z,4.43
2022-10-22T00:48:00.977Z,4.40
2022-10-22T00:50:33.934Z,4.55
2022-10-22T00:53:03.286Z,4.35
2022-10-22T00:55:32.279Z,4.50
2022-10-22T00:58:03.104Z,4.47
2022-10-22T01:00:31.891Z,3.90
2022-10-22T01:03:00.959Z,3.63
2022-10-22T01:05:31.632Z,3.70
2022-10-22T01:07:59.557Z,2.42
2022-10-22T01:10:47.977Z,3.30
2022-10-22T01:13:32.747Z,2.65
2022-10-22T01:16:07.649Z,4.28
2022-10-22T01:18:45.306Z,2.20
2022-10-22T01:21:21.518Z,4.43
2022-10-22T01:24:10.127Z,2.30
2022-10-22T01:26:51.726Z,2.45
2022-10-22T01:29:26.873Z,2.55
2022-10-22T01:31:57.659Z,2.45
2022-10-22T01:34:26.832Z,2.50
2022-10-22T01:36:56.854Z,4.57
2022-10-22T01:39:26.319Z,4.47
2022-10-22T01:41:56.228Z,3.30
2022-10-22T01:44:28.335Z,3.10
2022-10-22T01:47:15.318Z,3.13
2022-10-22T01:50:01.093Z,3.67
2022-10-22T01:52:42.330Z,2.42
2022-10-22T01:55:18.030Z,3.05
2022-10-22T01:57:54.233Z,3.42
2022-10-22T02:00:23.687Z,3.25
2022-10-22T02:02:59.478Z,4.55
2022-10-22T02:05:33.774Z,3.28
2022-10-22T02:08:06.547Z,3.42
2022-10-22T02:10:37.978Z,3.15
2022-10-22T02:13:09.337Z,4.20
2022-10-22T02:15:40.867Z,3.63
2022-10-22T02:18:10.743Z,2.63
2022-10-22T02:20:41.494Z,3.88
2022-10-22T02:23:10.694Z,2.85
2022-10-22T02:25:42.051Z,2.50
2022-10-22T02:28:17.776Z,4.35
2022-10-22T02:30:52.160Z,3.88
2022-10-22T02:33:23.107Z,3.80
2022-10-22T02:35:53.078Z,4.32
2022-10-22T02:38:21.304Z,3.22
2022-10-22T02:40:49.251Z,2.30
2022-10-22T02:43:18.738Z,2.78
2022-10-22T02:45:48.240Z,2.35
2022-10-22T02:48:16.024Z,2.45
2022-10-22T02:50:44.162Z,3.38
2022-10-22T02:53:11.890Z,4.60
2022-10-22T02:55:39.639Z,3.42
2022-10-22T02:58:07.435Z,4.38
2022-10-22T03:00:35.221Z,3.03
2022-10-22T03:03:04.479Z,3.92
2022-10-22T03:05:32.247Z,4.13
2022-10-22T03:08:00.091Z,3.28
2022-10-22T03:10:27.854Z,2.40
2022-10-22T03:12:56.053Z,2.97
2022-10-22T03:15:23.932Z,3.28
2022-10-22T03:17:51.723Z,4.82
2022-10-22T03:20:20.850Z,4.15
2022-10-22T03:22:48.819Z,2.10
2022-10-22T03:25:22.763Z,3.05
2022-10-22T03:27:53.382Z,2.20
2022-10-22T03:30:21.414Z,2.58
2022-10-22T03:32:49.405Z,3.20
2022-10-22T03:35:17.243Z,2.30
2022-10-22T03:37:46.454Z,3.13
2022-10-22T03:40:15.130Z,2.20
2022-10-22T03:42:43.625Z,2.20
2022-10-22T03:45:12.262Z,2.33
2022-10-22T03:47:40.663Z,2.83
2022-10-22T03:50:09.862Z,2.63
2022-10-22T03:52:38.838Z,1.88
2022-10-22T03:55:09.678Z,2.58
2022-10-22T03:57:37.655Z,2.20
2022-10-22T04:00:07.152Z,2.20
2022-10-22T04:02:34.971Z,2.35
2022-10-22T04:05:02.788Z,3.05
2022-10-22T04:07:30.621Z,2.30
2022-10-22T04:09:58.412Z,2.38
2022-10-22T04:12:27.587Z,1.98
2022-10-22T04:14:55.342Z,2.90
2022-10-22T04:17:23.499Z,2.55
2022-10-22T04:19:51.338Z,3.85
2022-10-22T04:22:19.098Z,1.73
2022-10-22T04:24:46.898Z,3.10
2022-10-22T04:27:14.684Z,1.42
2022-10-22T04:29:44.086Z,2.30
2022-10-22T04:32:11.880Z,2.38
2022-10-22T04:34:39.668Z,3.50
2022-10-22T04:37:07.423Z,1.48
2022-10-22T04:39:35.384Z,2.50
2022-10-22T04:42:03.773Z,2.70
2022-10-22T04:44:31.544Z,2.47
2022-10-22T04:47:00.716Z,3.25
2022-10-22T04:49:28.643Z,2.08
2022-10-22T04:51:56.479Z,2.27
2022-10-22T04:54:25.796Z,1.80
2022-10-22T04:56:56.890Z,1.23
2022-10-22T04:59:24.658Z,1.83
2022-10-22T05:01:52.440Z,3.08
2022-10-22T05:04:21.563Z,1.20
2022-10-22T05:06:49.395Z,1.67
2022-10-22T05:09:19.223Z,1.00
2022-10-22T05:11:49.017Z,1.83
2022-10-22T05:14:18.297Z,2.20
2022-10-22T05:16:48.255Z,1.75
2022-10-22T05:19:20.588Z,1.90
2022-10-22T05:21:50.587Z,0.70
2022-10-22T05:24:18.507Z,3.30
2022-10-22T05:26:46.385Z,1.17
2022-10-22T05:29:15.153Z,0.73
2022-10-22T05:31:43.001Z,0.70
2022-10-22T05:34:10.824Z,2.05
2022-10-22T05:36:38.759Z,1.00
2022-10-22T05:39:07.996Z,0.93
2022-10-22T05:41:36.676Z,1.42
2022-10-22T05:44:05.853Z,1.55
2022-10-22T05:46:36.738Z,0.80
2022-10-22T05:49:07.123Z,1.40
2022-10-22T05:51:37.655Z,1.38
2022-10-22T05:54:08.668Z,1.55
2022-10-22T05:56:37.470Z,2.05
2022-10-22T05:59:05.582Z,1.10
2022-10-22T06:01:35.836Z,4.10
2022-10-22T06:04:06.560Z,0.65
2022-10-22T06:06:36.025Z,1.63
2022-10-22T06:09:11.658Z,2.40
2022-10-22T06:11:39.635Z,1.00
2022-10-22T06:14:07.432Z,2.37
2022-10-22T06:16:35.222Z,1.20
2022-10-22T06:19:03.687Z,1.93
2022-10-22T06:21:32.291Z,1.83
2022-10-22T06:24:01.118Z,2.75
2022-10-22T06:26:30.652Z,0.85
2022-10-22T06:28:58.852Z,1.02
2022-10-22T06:31:28.218Z,0.80
2022-10-22T06:33:57.004Z,1.30
2022-10-22T06:36:25.587Z,0.80
2022-10-22T06:38:54.249Z,1.53
2022-10-22T06:41:25.575Z,1.23
2022-10-22T06:43:58.856Z,1.35
2022-10-22T06:46:27.218Z,2.10
2022-10-22T06:48:58.198Z,2.30
2022-10-22T06:51:27.669Z,1.27
2022-10-22T06:53:56.439Z,2.05
2022-10-22T06:56:26.795Z,0.73
2022-10-22T06:58:58.405Z,0.80
2022-10-22T07:01:28.298Z,4.00
2022-10-22T07:03:56.147Z,0.82
2022-10-22T07:06:25.874Z,0.85
2022-10-22T07:08:54.751Z,3.15
2022-10-22T07:11:25.015Z,2.08
2022-10-22T07:13:55.059Z,1.60
2022-10-22T07:16:29.534Z,1.10
2022-10-22T07:19:00.008Z,1.95
2022-10-22T07:21:27.969Z,2.40
2022-10-22T07:23:56.474Z,2.47
2022-10-22T07:26:25.298Z,2.95
2022-10-22T07:28:53.251Z,1.40
2022-10-22T07:31:21.183Z,2.85
2022-10-22T07:33:50.360Z,1.60
2022-10-22T07:36:18.779Z,2.50
2022-10-22T07:38:48.027Z,3.00
2022-10-22T07:41:16.777Z,0.98
2022-10-22T07:43:44.643Z,1.17
2022-10-22T07:46:12.580Z,1.80
2022-10-22T07:48:40.668Z,5.72
2022-10-22T07:51:10.122Z,2.72
2022-10-22T07:53:38.277Z,3.38
2022-10-22T07:56:07.871Z,2.25
2022-10-22T07:58:36.174Z,2.30
2022-10-22T08:01:05.701Z,1.17
2022-10-22T08:03:34.144Z,2.90
2022-10-22T08:06:02.361Z,2.10
2022-10-22T08:08:31.754Z,2.20
2022-10-22T08:11:01.960Z,4.20
2022-10-22T08:13:31.382Z,1.80
2022-10-22T08:15:59.738Z,1.75
2022-10-22T08:18:27.765Z,4.40
2022-10-22T08:20:55.630Z,2.25
2022-10-22T08:23:26.092Z,2.65
2022-10-22T08:25:57.572Z,2.33
2022-10-22T08:28:25.963Z,3.40
2022-10-22T08:30:53.759Z,2.85
2022-10-22T08:33:21.745Z,1.60
2022-10-22T08:35:50.526Z,2.15
2022-10-22T08:38:19.277Z,1.90
2022-10-22T08:40:50.847Z,1.65
2022-10-22T08:43:55.362Z,16.27
2022-10-22T08:46:39.952Z,2.83
2022-10-22T08:49:16.296Z,1.40
2022-10-22T08:51:44.384Z,1.60
2022-10-22T08:54:23.510Z,1.30
2022-10-22T08:57:00.672Z,2.33
2022-10-22T08:59:36.043Z,1.40
2022-10-22T09:02:06.937Z,6.00
2022-10-22T09:04:41.500Z,1.67
2022-10-22T09:07:11.385Z,2.40
2022-10-22T09:09:46.651Z,2.70
2022-10-22T09:12:20.196Z,2.30
2022-10-22T09:14:49.989Z,2.10
2022-10-22T09:17:24.854Z,1.67
2022-10-22T09:20:03.362Z,3.10
2022-10-22T09:22:39.089Z,2.55
2022-10-22T09:25:19.954Z,2.53
2022-10-22T09:27:49.101Z,2.53
2022-10-22T09:30:21.876Z,2.05
2022-10-22T09:32:52.989Z,2.38
2022-10-22T09:35:25.217Z,3.25
2022-10-22T09:37:55.593Z,6.72
2022-10-22T09:40:24.606Z,1.48
2022-10-22T09:42:52.330Z,1.42
2022-10-22T09:45:25.208Z,1.17
2022-10-22T09:48:10.553Z,2.45
2022-10-22T09:50:43.827Z,1.43
2022-10-22T09:53:18.818Z,1.73
2022-10-22T09:55:51.574Z,2.45
2022-10-22T09:58:19.781Z,1.40
2022-10-22T10:00:52.559Z,2.63
2022-10-22T10:03:22.719Z,1.75
2022-10-22T10:05:54.379Z,1.90
2022-10-22T10:08:23.290Z,1.92
2022-10-22T10:10:54.405Z,1.10
2022-10-22T10:13:42.016Z,1.70
2022-10-22T10:16:22.886Z,1.13
2022-10-22T10:19:10.903Z,1.27
2022-10-22T10:21:48.639Z,2.92
2022-10-22T10:24:25.275Z,2.45
2022-10-22T10:26:59.423Z,1.50
2022-10-22T10:29:42.589Z,1.90
2022-10-22T10:32:33.478Z,2.10
2022-10-22T10:35:16.007Z,2.53
2022-10-22T10:37:51.157Z,1.70
2022-10-22T10:40:33.959Z,2.15
2022-10-22T10:43:08.323Z,1.95
2022-10-22T10:45:46.299Z,1.52
2022-10-22T10:48:29.928Z,2.90
2022-10-22T10:51:05.308Z,2.45
2022-10-22T10:53:54.133Z,2.08
2022-10-22T10:56:36.790Z,1.40
2022-10-22T10:59:17.140Z,1.70
2022-10-22T11:02:01.502Z,1.23
2022-10-22T11:04:57.478Z,2.60
2022-10-22T11:07:34.789Z,1.20
2022-10-22T11:10:10.290Z,1.40
2022-10-22T11:12:43.429Z,1.92
2022-10-22T11:15:24.860Z,2.00
2022-10-22T11:17:56.179Z,2.15
2022-10-22T11:20:29.743Z,3.95
2022-10-22T11:23:21.452Z,2.17
2022-10-22T11:25:50.905Z,1.13
2022-10-22T11:28:23.600Z,1.33
2022-10-22T11:31:02.518Z,1.60
2022-10-22T11:33:40.249Z,1.60
2022-10-22T11:36:11.072Z,1.25
2022-10-22T11:38:38.975Z,1.80
2022-10-22T11:41:11.710Z,1.98
2022-10-22T11:43:58.824Z,0.80
2022-10-22T11:46:30.674Z,1.30
2022-10-22T11:49:24.775Z,1.20
2022-10-22T11:52:22.601Z,0.70
2022-10-22T11:54:54.207Z,1.20
2022-10-22T11:57:26.954Z,0.77
2022-10-22T11:59:58.514Z,1.37
2022-10-22T12:02:39.364Z,1.50
2022-10-22T12:05:35.839Z,1.23
2022-10-22T12:08:16.884Z,3.47
2022-10-22T12:11:04.235Z,1.20
2022-10-22T12:13:34.418Z,2.17
2022-10-22T12:16:05.084Z,2.00
2022-10-22T12:18:41.410Z,2.45
2022-10-22T12:21:12.773Z,0.80
2022-10-22T12:23:42.516Z,1.67
2022-10-22T12:26:24.607Z,1.35
2022-10-22T12:28:52.851Z,1.73
2022-10-22T12:31:20.656Z,1.70
2022-10-22T12:33:49.240Z,2.03
2022-10-22T12:36:18.789Z,1.10
2022-10-22T12:38:48.775Z,1.80
2022-10-22T12:41:16.620Z,0.95
2022-10-22T12:43:45.393Z,1.42
2022-10-22T12:46:16.171Z,1.83
2022-10-22T12:48:46.296Z,1.77
2022-10-22T12:51:18.281Z,1.65
2022-10-22T12:53:50.244Z,1.25
2022-10-22T12:56:23.787Z,1.35
2022-10-22T12:58:56.489Z,2.47
2022-10-22T13:01:28.361Z,0.98
2022-10-22T13:04:08.318Z,2.50
2022-10-22T13:06:37.136Z,1.65
2022-10-22T13:09:20.420Z,2.13
2022-10-22T13:11:52.857Z,1.52
2022-10-22T13:14:27.424Z,2.15
2022-10-22T13:17:06.277Z,1.30
2022-10-22T13:19:39.679Z,1.70
2022-10-22T13:22:29.845Z,3.67
2022-10-22T13:25:00.772Z,2.33
2022-10-22T13:27:29.313Z,1.80
2022-10-22T13:29:58.055Z,1.92
2022-10-22T13:32:31.955Z,2.03
2022-10-22T13:35:00.892Z,15.02
2022-10-22T13:37:31.669Z,5.45
2022-10-22T13:40:00.863Z,2.00
2022-10-22T13:42:28.630Z,3.38
2022-10-22T13:44:56.371Z,1.95
2022-10-22T13:47:27.399Z,2.30
2022-10-22T13:49:58.225Z,2.43
2022-10-22T13:52:35.182Z,3.47
2022-10-22T13:55:15.553Z,2.72
2022-10-22T13:57:43.470Z,2.97
2022-10-22T14:00:14.571Z,3.78
2022-10-22T14:02:43.030Z,1.55
2022-10-22T14:05:11.642Z,2.67
2022-10-22T14:07:40.870Z,1.35
2022-10-22T14:10:17.527Z,1.80
2022-10-22T14:12:49.274Z,2.65
2022-10-22T14:15:21.121Z,2.40
2022-10-22T14:17:51.416Z,2.90
2022-10-22T14:20:22.190Z,2.05
2022-10-22T14:22:51.569Z,3.97
2022-10-22T14:25:23.277Z,7.22
2022-10-22T14:27:51.760Z,4.15
2022-10-22T14:30:21.652Z,1.63
2022-10-22T14:32:49.795Z,5.90
2022-10-22T14:35:19.883Z,2.30
2022-10-22T14:37:47.666Z,3.17
2022-10-22T14:40:17.815Z,4.30
2022-10-22T14:42:48.764Z,2.70
2022-10-22T14:45:21.914Z,3.60
2022-10-22T14:47:50.302Z,3.05
2022-10-22T14:50:19.024Z,3.03
2022-10-22T14:52:46.838Z,2.60
2022-10-22T14:55:17.034Z,2.53
2022-10-22T14:57:46.840Z,2.75
2022-10-22T15:00:17.620Z,3.17
2022-10-22T15:02:46.089Z,1.88
2022-10-22T15:05:14.386Z,2.97
2022-10-22T15:07:42.792Z,2.80
2022-10-22T15:10:11.379Z,5.03
2022-10-22T15:12:39.219Z,3.45
2022-10-22T15:15:09.450Z,2.00
2022-10-22T15:17:37.212Z,2.85
2022-10-22T15:20:06.052Z,3.38
2022-10-22T15:22:35.916Z,4.65
2022-10-22T15:25:06.119Z,4.13
2022-10-22T15:27:34.154Z,1.50
2022-10-22T15:32:33.760Z,2.20
2022-10-22T15:35:02.119Z,3.87
2022-10-22T15:37:30.750Z,3.38
2022-10-22T15:39:58.636Z,2.40
2022-10-22T15:42:26.417Z,2.85
2022-10-22T15:44:59.199Z,3.47
2022-10-22T15:47:28.485Z,3.78
2022-10-22T15:49:57.683Z,2.28
2022-10-22T15:52:25.487Z,6.03
2022-10-22T15:54:53.315Z,4.38
2022-10-22T15:57:21.130Z,2.80
2022-10-22T15:59:49.997Z,2.75
2022-10-22T16:02:18.190Z,2.72
2022-10-22T16:04:45.980Z,2.38
2022-10-22T16:07:15.115Z,4.50
2022-10-22T16:09:42.844Z,3.70
2022-10-22T16:12:12.180Z,2.10
2022-10-22T16:14:42.272Z,3.67
2022-10-22T16:17:10.038Z,2.75
2022-10-22T16:19:37.908Z,1.75
2022-10-22T16:22:05.975Z,2.92
2022-10-22T16:24:39.798Z,2.15
2022-10-22T16:27:07.818Z,3.47
2022-10-22T16:29:37.755Z,2.90
2022-10-22T16:32:05.851Z,2.10
2022-10-22T16:34:34.191Z,2.53
2022-10-22T16:37:02.502Z,2.22
2022-10-22T16:39:30.326Z,2.92
2022-10-22T16:41:59.449Z,3.45
2022-10-22T16:44:27.347Z,3.70
2022-10-22T16:46:55.071Z,2.08
2022-10-22T16:49:23.020Z,2.83
2022-10-22T16:51:50.799Z,2.75
2022-10-22T16:54:18.554Z,2.60
2022-10-22T16:56:46.334Z,2.80
2022-10-22T16:59:15.526Z,2.23
2022-10-22T17:01:43.472Z,3.47
2022-10-22T17:04:11.749Z,3.97
2022-10-22T17:06:39.531Z,3.97
2022-10-22T17:09:07.453Z,4.00
2022-10-22T17:11:37.076Z,4.13
2022-10-22T17:14:07.288Z,2.20
2022-10-22T17:16:36.728Z,4.13
2022-10-22T17:19:05.468Z,2.60
2022-10-22T17:21:33.797Z,3.38
2022-10-22T17:24:01.588Z,5.53
2022-10-22T17:26:30.338Z,4.47
2022-10-22T17:28:58.644Z,6.13
2022-10-22T17:31:28.060Z,4.55
2022-10-22T17:33:59.710Z,6.35
2022-10-22T17:36:31.804Z,4.13
2022-10-22T17:39:05.119Z,4.55
2022-10-22T17:41:35.668Z,4.10
2022-10-22T17:44:04.939Z,6.13
2022-10-22T17:46:33.719Z,6.22
2022-10-22T17:49:04.902Z,3.92
2022-10-22T17:51:33.083Z,6.00
2022-10-22T17:54:02.474Z,6.68
2022-10-22T17:56:32.775Z,3.90
2022-10-22T17:59:00.598Z,9.45
2022-10-22T18:01:32.848Z,6.07
2022-10-22T18:04:05.085Z,7.30
2022-10-22T18:06:33.803Z,6.10
2022-10-22T18:09:05.247Z,5.55
2022-10-22T18:11:34.310Z,4.30
2022-10-22T18:14:03.033Z,5.32
2022-10-22T18:16:30.956Z,4.68
2022-10-22T18:18:59.004Z,5.90
2022-10-22T18:21:30.430Z,8.23
2022-10-22T18:23:59.874Z,4.88
2022-10-22T18:26:27.803Z,8.77
2022-10-22T18:28:55.947Z,6.82
2022-10-22T18:31:25.391Z,9.88
2022-10-22T18:36:28.762Z,9.35
2022-10-22T18:38:58.853Z,8.77
2022-10-22T18:41:27.364Z,8.02
2022-10-22T18:43:56.422Z,8.63
2022-10-22T18:46:24.840Z,10.98
2022-10-22T18:48:54.117Z,9.38
2022-10-22T18:51:22.147Z,9.82
2022-10-22T18:54:05.376Z,7.53
2022-10-22T18:56:40.840Z,9.27
2022-10-22T18:59:14.150Z,8.82
2022-10-22T19:01:42.107Z,7.50
2022-10-22T19:04:11.140Z,9.90
2022-10-22T19:06:41.775Z,8.50
2022-10-22T19:09:15.708Z,8.75
2022-10-22T19:11:44.421Z,10.07
2022-10-22T19:14:13.494Z,8.82
2022-10-22T19:16:41.458Z,8.85
2022-10-22T19:19:09.556Z,7.90
2022-10-22T19:21:38.614Z,8.20
2022-10-22T19:24:07.163Z,11.20
2022-10-22T19:26:36.434Z,9.30
2022-10-22T19:29:04.639Z,10.32
2022-10-22T19:31:32.739Z,10.00
2022-10-22T19:34:01.930Z,9.27
2022-10-22T19:36:30.902Z,8.60
2022-10-22T19:38:59.427Z,8.07
2022-10-22T19:41:28.814Z,8.57
2022-10-22T19:43:59.143Z,9.40
2022-10-22T19:46:28.870Z,10.50
2022-10-22T19:48:57.289Z,8.82
2022-10-22T19:51:27.175Z,8.77
2022-10-22T19:53:59.319Z,10.30
2022-10-22T19:56:27.407Z,9.63
2022-10-22T19:58:55.218Z,8.02
2022-10-22T20:01:24.844Z,8.68
2022-10-22T20:03:53.171Z,9.25
2022-10-22T20:06:21.712Z,8.98
2022-10-22T20:08:53.727Z,9.03
2022-10-22T20:11:26.170Z,8.10
2022-10-22T20:13:54.563Z,9.10
2022-10-22T20:16:25.935Z,8.13
2022-10-22T20:18:54.044Z,8.45
2022-10-22T20:21:22.605Z,8.80
2022-10-22T20:23:54.023Z,9.00
2022-10-22T20:26:23.778Z,7.78
2022-10-22T20:28:51.675Z,7.70
2022-10-22T20:31:21.054Z,8.50
2022-10-22T20:33:51.399Z,6.80
2022-10-22T20:36:21.583Z,8.52
2022-10-22T20:38:49.840Z,8.57
2022-10-22T20:41:20.196Z,10.00
2022-10-22T20:43:49.111Z,7.32
2022-10-22T20:46:19.701Z,7.28
2022-10-22T20:48:47.826Z,8.63
2022-10-22T20:51:16.908Z,11.35
2022-10-22T20:53:45.023Z,10.90
2022-10-22T20:56:13.531Z,10.45
2022-10-22T20:58:47.840Z,8.30
2022-10-22T21:01:21.745Z,10.15
2022-10-22T21:03:50.088Z,8.67
2022-10-22T21:06:20.817Z,7.85
2022-10-22T21:08:48.676Z,8.32
2022-10-22T21:11:16.723Z,8.93
2022-10-22T21:13:44.763Z,7.28
2022-10-22T21:16:14.673Z,9.93
2022-10-22T21:18:42.459Z,8.48
2022-10-22T21:21:11.588Z,8.88
2022-10-22T21:23:41.212Z,8.43
2022-10-22T21:26:09.090Z,7.78
2022-10-22T21:28:37.608Z,7.35
2022-10-22T21:31:07.138Z,8.63
2022-10-22T21:33:37.617Z,7.13
2022-10-22T21:36:06.799Z,7.10
2022-10-22T21:38:35.446Z,7.13
2022-10-22T21:41:07.097Z,7.28
2022-10-22T21:43:34.913Z,6.90
2022-10-22T21:46:08.224Z,6.85
2022-10-22T21:48:36.852Z,6.55
2022-10-22T21:51:08.275Z,7.03
2022-10-22T21:53:36.466Z,7.30
2022-10-22T21:56:05.835Z,8.18
2022-10-22T21:58:35.667Z,7.93
2022-10-22T22:01:04.162Z,6.50
2022-10-22T22:03:32.011Z,7.20
2022-10-22T22:06:00.646Z,6.40
2022-10-22T22:08:29.336Z,5.85
2022-10-22T22:11:02.474Z,6.47
2022-10-22T22:13:32.214Z,7.93
2022-10-22T22:16:04.139Z,6.07
2022-10-22T22:18:33.107Z,5.40
2022-10-22T22:21:03.811Z,7.22
2022-10-22T22:23:32.021Z,5.38
2022-10-22T22:26:00.679Z,6.28
2022-10-22T22:28:29.555Z,5.13
2022-10-22T22:30:58.867Z,5.33
2022-10-22T22:33:26.819Z,5.57
2022-10-22T22:35:59.413Z,4.70
2022-10-22T22:38:27.203Z,4.30
2022-10-22T22:40:54.938Z,4.93
2022-10-22T22:43:22.688Z,5.00
2022-10-22T22:45:59.839Z,6.25
2022-10-22T22:48:27.690Z,4.35
2022-10-22T22:50:55.506Z,3.95
2022-10-22T22:53:23.286Z,4.55
2022-10-22T22:55:51.069Z,4.82
2022-10-22T22:58:18.963Z,4.70
2022-10-22T23:00:46.719Z,5.68
2022-10-22T23:03:16.086Z,4.10
2022-10-22T23:05:43.832Z,3.78
2022-10-22T23:08:11.614Z,3.72
2022-10-22T23:10:39.379Z,4.50
2022-10-22T23:13:07.102Z,4.55
2022-10-22T23:15:34.891Z,5.25
2022-10-22T23:18:02.674Z,3.80
2022-10-22T23:20:31.795Z,4.00
2022-10-22T23:23:00.587Z,3.90
2022-10-22T23:25:28.353Z,3.50
2022-10-22T23:27:56.106Z,4.18
2022-10-22T23:30:23.866Z,4.22
2022-10-22T23:32:51.682Z,3.42
2022-10-22T23:35:19.660Z,3.95
2022-10-22T23:37:48.781Z,3.38
2022-10-22T23:40:16.715Z,3.42
2022-10-22T23:42:44.820Z,3.85
2022-10-22T23:45:12.585Z,4.18
2022-10-22T23:47:40.756Z,4.90
2022-10-22T23:50:09.391Z,3.45
2022-10-22T23:52:37.158Z,3.70
2022-10-22T23:55:07.452Z,3.50
2022-10-22T23:57:35.222Z,4.80
